createdAt,value
2023-04-16T00:02:43.832Z,8.52
2023-04-16T00:05:47.533Z,13.45
2023-04-16T00:08:49.617Z,9.48
2023-04-16T00:11:52.136Z,9.68
2023-04-16T00:14:54.346Z,11.48
2023-04-16T00:17:57.098Z,9.45
2023-04-16T00:20:59.868Z,11.32
2023-04-16T00:24:02.234Z,7.20
2023-04-16T00:27:04.787Z,7.18
2023-04-16T00:30:08.777Z,9.27
2023-04-16T00:33:11.234Z,11.27
2023-04-16T00:36:13.894Z,9.18
2023-04-16T00:39:16.163Z,8.93
2023-04-16T00:42:18.856Z,10.68
2023-04-16T00:45:21.350Z,9.20
2023-04-16T00:48:24.302Z,10.57
2023-04-16T00:51:27.237Z,6.13
2023-04-16T00:54:33.021Z,5.82
2023-04-16T00:57:35.087Z,10.98
2023-04-16T01:00:37.899Z,8.90
2023-04-16T01:03:48.763Z,9.05
2023-04-16T01:06:51.824Z,9.25
2023-04-16T01:09:54.200Z,11.60
2023-04-16T01:12:57.111Z,10.68
2023-04-16T01:16:00.501Z,9.15
2023-04-16T01:19:03.056Z,9.73
2023-04-16T01:22:06.421Z,6.80
2023-04-16T01:25:09.674Z,7.50
2023-04-16T01:28:12.142Z,11.30
2023-04-16T01:31:14.953Z,7.65
2023-04-16T01:34:30.677Z,7.07
2023-04-16T01:37:34.338Z,9.00
2023-04-16T01:40:38.226Z,5.90
2023-04-16T01:43:42.469Z,6.72
2023-04-16T01:46:45.628Z,4.50
2023-04-16T01:49:48.545Z,8.55
2023-04-16T01:52:51.155Z,4.38
2023-04-16T01:55:54.049Z,8.10
2023-04-16T01:58:56.415Z,6.25
2023-04-16T02:02:13.892Z,10.10
2023-04-16T02:05:16.306Z,7.85
2023-04-16T02:08:18.947Z,9.35
2023-04-16T02:11:22.737Z,6.53
2023-04-16T02:14:26.960Z,5.40
2023-04-16T02:17:29.217Z,6.03
2023-04-16T02:20:47.134Z,7.85
2023-04-16T02:23:52.103Z,5.25
2023-04-16T02:26:59.743Z,4.95
2023-04-16T02:30:03.025Z,7.00
2023-04-16T02:33:10.466Z,6.75
2023-04-16T02:36:14.881Z,10.07
2023-04-16T02:39:17.408Z,9.88
2023-04-16T02:42:19.545Z,11.77
2023-04-16T02:45:22.935Z,12.82
2023-04-16T02:48:25.822Z,10.32
2023-04-16T02:51:29.684Z,6.75
2023-04-16T02:54:31.796Z,10.75
2023-04-16T02:57:34.753Z,19.30
2023-04-16T03:00:38.443Z,11.02
2023-04-16T03:03:41.548Z,11.30
2023-04-16T03:06:43.850Z,9.73
2023-04-16T03:09:46.685Z,15.18
2023-04-16T03:12:48.983Z,12.15
2023-04-16T03:15:51.550Z,17.95
2023-04-16T03:18:53.758Z,12.57
2023-04-16T03:21:56.521Z,18.55
2023-04-16T03:24:58.888Z,17.40
2023-04-16T03:28:03.657Z,23.52
2023-04-16T03:31:06.473Z,18.65
2023-04-16T03:34:11.513Z,18.05
2023-04-16T03:37:15.737Z,19.05
2023-04-16T03:40:18.370Z,18.85
2023-04-16T03:43:21.165Z,19.98
2023-04-16T03:46:23.847Z,16.02
2023-04-16T03:49:26.607Z,20.85
2023-04-16T03:52:29.386Z,26.20
2023-04-16T03:55:32.179Z,21.67
2023-04-16T03:58:34.971Z,26.67
2023-04-16T04:01:37.428Z,18.27
2023-04-16T04:04:41.295Z,21.67
2023-04-16T04:07:45.773Z,22.33
2023-04-16T04:10:51.307Z,28.55
2023-04-16T04:16:57.659Z,21.73
2023-04-16T04:20:01.686Z,25.15
2023-04-16T04:23:06.448Z,25.55
2023-04-16T04:26:09.464Z,24.20
2023-04-16T04:29:12.187Z,18.33
2023-04-16T04:32:15.014Z,24.35
2023-04-16T04:35:17.963Z,21.45
2023-04-16T04:38:22.602Z,18.33
2023-04-16T04:41:27.407Z,16.85
2023-04-16T04:44:29.662Z,25.92
2023-04-16T04:47:32.887Z,24.85
2023-04-16T04:50:35.249Z,21.98
2023-04-16T04:53:38.478Z,19.83
2023-04-16T04:56:41.251Z,17.75
2023-04-16T04:59:44.090Z,18.73
2023-04-16T05:02:48.223Z,18.63
2023-04-16T05:05:51.028Z,21.40
2023-04-16T05:08:53.247Z,21.48
2023-04-16T05:11:56.120Z,24.50
2023-04-16T05:14:58.372Z,22.45
2023-04-16T05:18:00.915Z,20.98
2023-04-16T05:21:03.219Z,20.45
2023-04-16T05:24:06.523Z,19.00
2023-04-16T05:27:08.621Z,18.80
2023-04-16T05:30:11.902Z,20.15
2023-04-16T05:33:15.865Z,21.13
2023-04-16T05:36:18.633Z,18.95
2023-04-16T05:39:21.416Z,16.23
2023-04-16T05:42:24.019Z,18.45
2023-04-16T05:45:27.959Z,24.52
2023-04-16T05:48:31.154Z,20.83
2023-04-16T05:51:33.772Z,30.52
2023-04-16T05:54:36.132Z,13.30
2023-04-16T05:57:38.261Z,18.23
2023-04-16T06:00:41.265Z,15.73
2023-04-16T06:03:43.637Z,17.85
2023-04-16T06:06:46.763Z,18.40
2023-04-16T06:09:48.756Z,14.82
2023-04-16T06:12:51.616Z,15.77
2023-04-16T06:15:53.811Z,14.18
2023-04-16T06:18:56.354Z,15.85
2023-04-16T06:21:58.581Z,18.17
2023-04-16T06:25:01.348Z,18.83
2023-04-16T06:28:03.705Z,17.88
2023-04-16T06:31:06.522Z,21.10
2023-04-16T06:34:09.252Z,30.73
2023-04-16T06:37:12.136Z,19.67
2023-04-16T06:40:14.506Z,22.05
2023-04-16T06:43:18.217Z,19.13
2023-04-16T06:46:20.746Z,18.40
2023-04-16T06:49:23.372Z,21.05
2023-04-16T06:52:25.880Z,26.20
2023-04-16T06:55:28.515Z,23.00
2023-04-16T06:58:30.833Z,16.65
2023-04-16T07:01:34.786Z,16.10
2023-04-16T07:04:36.918Z,13.40
2023-04-16T07:07:39.370Z,13.00
2023-04-16T07:10:41.561Z,12.85
2023-04-16T07:13:44.037Z,19.00
2023-04-16T07:16:46.333Z,16.45
2023-04-16T07:19:49.177Z,11.45
2023-04-16T07:22:51.278Z,19.65
2023-04-16T07:25:53.810Z,10.80
2023-04-16T07:28:56.204Z,16.60
2023-04-16T07:31:58.869Z,14.38
2023-04-16T07:35:01.009Z,13.73
2023-04-16T07:38:03.262Z,19.75
2023-04-16T07:41:05.957Z,18.10
2023-04-16T07:44:11.227Z,13.13
2023-04-16T07:47:13.845Z,16.15
2023-04-16T07:50:16.709Z,13.48
2023-04-16T07:53:18.775Z,15.48
2023-04-16T07:56:21.962Z,17.00
2023-04-16T07:59:24.735Z,13.30
2023-04-16T08:02:27.723Z,14.20
2023-04-16T08:05:29.903Z,13.93
2023-04-16T08:08:32.472Z,19.42
2023-04-16T08:11:34.625Z,23.65
2023-04-16T08:14:37.526Z,16.73
2023-04-16T08:17:39.839Z,17.58
2023-04-16T08:20:43.120Z,13.80
2023-04-16T08:23:45.345Z,18.30
2023-04-16T08:26:48.175Z,13.95
2023-04-16T08:29:50.299Z,12.55
2023-04-16T08:32:53.963Z,13.85
2023-04-16T08:35:56.059Z,12.38
2023-04-16T08:38:58.923Z,14.40
2023-04-16T08:42:06.258Z,12.50
2023-04-16T08:45:15.998Z,11.63
2023-04-16T08:48:22.119Z,12.98
2023-04-16T08:51:27.674Z,13.45
2023-04-16T08:54:37.760Z,9.63
2023-04-16T08:57:47.605Z,11.13
2023-04-16T09:00:50.812Z,9.10
2023-04-16T09:03:54.386Z,14.38
2023-04-16T09:06:59.701Z,18.70
2023-04-16T09:10:03.663Z,11.50
2023-04-16T09:13:06.280Z,15.27
2023-04-16T09:16:09.806Z,13.55
2023-04-16T09:19:12.516Z,19.35
2023-04-16T09:22:15.324Z,12.45
2023-04-16T09:25:17.618Z,16.52
2023-04-16T09:28:39.430Z,22.15
2023-04-16T09:31:41.943Z,13.25
2023-04-16T09:35:01.426Z,24.15
2023-04-16T09:38:04.426Z,13.15
2023-04-16T09:41:10.545Z,12.52
2023-04-16T09:44:12.685Z,14.85
2023-04-16T09:47:15.367Z,13.13
2023-04-16T09:50:19.748Z,18.45
2023-04-16T09:56:31.525Z,16.25
2023-04-16T09:59:36.203Z,14.55
2023-04-16T10:02:42.200Z,13.98
2023-04-16T10:05:45.454Z,15.60
2023-04-16T10:08:53.251Z,19.52
2023-04-16T10:11:55.858Z,13.00
2023-04-16T10:14:58.091Z,12.30
2023-04-16T10:18:01.058Z,18.90
2023-04-16T10:21:03.652Z,16.67
2023-04-16T10:24:06.770Z,17.90
2023-04-16T10:27:09.007Z,17.08
2023-04-16T10:30:13.339Z,18.38
2023-04-16T10:33:15.462Z,22.93
2023-04-16T10:36:23.859Z,18.77
2023-04-16T10:39:29.708Z,18.27
2023-04-16T10:42:32.408Z,27.83
2023-04-16T10:45:38.989Z,21.90
2023-04-16T10:48:49.625Z,21.23
2023-04-16T10:51:55.742Z,18.92
2023-04-16T10:54:59.688Z,16.00
2023-04-16T10:58:01.967Z,19.98
2023-04-16T11:01:12.616Z,21.08
2023-04-16T11:04:21.047Z,21.00
2023-04-16T11:07:35.377Z,27.77
2023-04-16T11:10:39.761Z,26.58
2023-04-16T11:16:45.964Z,21.27
2023-04-16T11:19:49.036Z,24.88
2023-04-16T11:22:53.007Z,17.85
2023-04-16T11:25:58.723Z,21.35
2023-04-16T11:29:01.273Z,20.83
2023-04-16T11:32:03.804Z,22.15
2023-04-16T11:35:17.352Z,18.20
2023-04-16T11:38:19.848Z,20.83
2023-04-16T11:41:22.314Z,21.08
2023-04-16T11:44:27.437Z,17.45
2023-04-16T11:50:35.487Z,21.10
2023-04-16T11:53:46.612Z,23.52
2023-04-16T11:56:51.080Z,24.95
2023-04-16T12:00:01.405Z,20.67
2023-04-16T12:03:15.461Z,19.10
2023-04-16T12:06:18.241Z,23.15
2023-04-16T12:09:27.955Z,30.30
2023-04-16T12:12:32.516Z,19.60
2023-04-16T12:15:46.217Z,18.88
2023-04-16T12:19:04.074Z,19.17
2023-04-16T12:22:06.880Z,21.50
2023-04-16T12:25:14.610Z,15.43
2023-04-16T12:28:42.399Z,23.83
2023-04-16T12:31:45.713Z,19.70
2023-04-16T12:34:57.487Z,16.67
2023-04-16T12:38:00.467Z,22.20
2023-04-16T12:41:03.554Z,22.25
2023-04-16T12:44:14.124Z,23.65
2023-04-16T12:47:16.637Z,20.00
2023-04-16T12:50:19.440Z,21.45
2023-04-16T12:53:22.054Z,19.08
2023-04-16T12:56:24.285Z,18.92
2023-04-16T12:59:27.131Z,13.93
2023-04-16T13:02:29.948Z,16.75
2023-04-16T13:05:32.855Z,17.95
2023-04-16T13:08:35.206Z,17.75
2023-04-16T13:11:37.719Z,17.15
2023-04-16T13:14:42.772Z,19.90
2023-04-16T13:17:48.588Z,20.55
2023-04-16T13:20:50.923Z,16.20
2023-04-16T13:23:54.291Z,18.05
2023-04-16T13:26:56.742Z,21.02
2023-04-16T13:29:59.468Z,17.35
2023-04-16T13:33:01.817Z,16.75
2023-04-16T13:36:04.895Z,22.80
2023-04-16T13:39:11.600Z,18.13
2023-04-16T13:42:14.404Z,15.95
2023-04-16T13:45:16.640Z,17.52
2023-04-16T13:48:19.244Z,23.88
2023-04-16T13:51:23.066Z,14.13
2023-04-16T13:54:25.745Z,15.48
2023-04-16T13:57:28.996Z,13.73
2023-04-16T14:00:32.189Z,17.02
2023-04-16T14:03:38.775Z,12.40
2023-04-16T14:06:41.556Z,18.40
2023-04-16T14:09:43.949Z,22.55
2023-04-16T14:12:50.919Z,14.25
2023-04-16T14:15:57.445Z,18.60
2023-04-16T14:19:00.229Z,13.10
2023-04-16T14:22:02.780Z,15.30
2023-04-16T14:25:06.363Z,16.30
2023-04-16T14:28:09.563Z,14.50
2023-04-16T14:31:12.574Z,20.08
2023-04-16T14:34:15.006Z,18.60
2023-04-16T14:37:18.415Z,20.38
2023-04-16T14:40:20.750Z,24.65
2023-04-16T14:43:23.456Z,21.52
2023-04-16T14:46:27.330Z,21.23
2023-04-16T14:49:29.811Z,18.45
2023-04-16T14:52:32.643Z,15.27
2023-04-16T14:55:35.274Z,21.90
2023-04-16T14:58:39.311Z,22.65
2023-04-16T15:01:43.293Z,18.02
2023-04-16T15:04:45.911Z,19.15
2023-04-16T15:07:48.657Z,14.15
2023-04-16T15:10:52.032Z,18.00
2023-04-16T15:13:55.133Z,22.08
2023-04-16T15:16:57.872Z,24.85
2023-04-16T15:20:00.848Z,18.23
2023-04-16T15:23:03.557Z,20.40
2023-04-16T15:26:06.696Z,20.33
2023-04-16T15:29:08.772Z,16.60
2023-04-16T15:32:11.912Z,15.60
2023-04-16T15:35:14.901Z,18.00
2023-04-16T15:38:17.946Z,17.33
2023-04-16T15:41:20.565Z,15.45
2023-04-16T15:44:23.471Z,15.27
2023-04-16T15:47:25.678Z,20.77
2023-04-16T15:50:28.222Z,18.13
2023-04-16T15:53:30.620Z,16.55
2023-04-16T15:56:34.201Z,15.27
2023-04-16T16:14:37.020Z,14.37
2023-04-16T16:17:42.576Z,17.60
2023-04-16T16:20:44.941Z,15.63
2023-04-16T16:23:47.987Z,18.58
2023-04-16T16:26:50.324Z,17.30
2023-04-16T16:29:53.218Z,17.70
2023-04-16T16:32:58.096Z,18.63
2023-04-16T16:36:00.906Z,14.45
2023-04-16T16:39:04.318Z,15.60
2023-04-16T16:42:09.241Z,16.45
2023-04-16T16:45:11.824Z,20.83
2023-04-16T16:48:14.548Z,15.55
2023-04-16T16:51:19.612Z,15.95
2023-04-16T16:54:22.724Z,19.33
2023-04-16T16:57:25.158Z,17.15
2023-04-16T17:00:27.919Z,14.95
2023-04-16T17:03:30.218Z,17.17
2023-04-16T17:06:33.553Z,19.92
2023-04-16T17:09:38.892Z,18.17
2023-04-16T17:12:41.889Z,17.00
2023-04-16T17:15:44.489Z,22.40
2023-04-16T17:18:47.572Z,22.38
2023-04-16T17:21:50.825Z,18.65
2023-04-16T17:24:54.677Z,19.73
2023-04-16T17:27:56.794Z,19.35
2023-04-16T17:30:59.664Z,16.83
2023-04-16T17:34:05.101Z,20.73
2023-04-16T17:37:07.552Z,21.02
2023-04-16T17:40:10.597Z,16.70
2023-04-16T17:43:13.620Z,23.85
2023-04-16T17:46:15.895Z,21.15
2023-04-16T17:49:18.858Z,21.65
2023-04-16T17:52:21.808Z,19.08
2023-04-16T17:55:24.592Z,26.08
2023-04-16T17:58:26.702Z,21.50
2023-04-16T18:01:29.076Z,20.80
2023-04-16T18:04:31.465Z,24.98
2023-04-16T18:07:35.660Z,27.98
2023-04-16T18:10:38.807Z,17.53
2023-04-16T18:13:43.973Z,20.95
2023-04-16T18:16:49.586Z,18.58
2023-04-16T18:19:52.279Z,20.88
2023-04-16T18:22:54.491Z,22.00
2023-04-16T18:25:57.829Z,28.63
2023-04-16T18:29:00.397Z,24.13
2023-04-16T18:32:04.721Z,20.30
2023-04-16T18:35:08.282Z,20.92
2023-04-16T18:38:11.187Z,25.55
2023-04-16T18:41:20.552Z,23.58
2023-04-16T18:44:24.442Z,23.98
2023-04-16T18:47:26.585Z,28.88
2023-04-16T18:50:29.159Z,25.40
2023-04-16T18:53:31.589Z,22.92
2023-04-16T18:56:34.368Z,29.92
2023-04-16T18:59:36.653Z,23.45
2023-04-16T19:02:40.445Z,28.65
2023-04-16T19:05:42.691Z,22.30
2023-04-16T19:08:45.432Z,25.42
2023-04-16T19:11:49.550Z,25.73
2023-04-16T19:14:54.092Z,25.17
2023-04-16T19:17:56.641Z,22.85
2023-04-16T19:21:02.130Z,31.70
2023-04-16T19:24:04.791Z,24.95
2023-04-16T19:27:07.817Z,21.83
2023-04-16T19:30:10.909Z,22.70
2023-04-16T19:33:13.698Z,16.17
2023-04-16T19:36:15.948Z,17.23
2023-04-16T19:39:18.462Z,17.27
2023-04-16T19:42:21.115Z,16.15
2023-04-16T19:45:26.115Z,18.00
2023-04-16T19:51:31.427Z,17.65
2023-04-16T19:54:35.387Z,22.95
2023-04-16T19:57:38.052Z,18.35
2023-04-16T20:00:43.769Z,22.90
2023-04-16T20:03:46.280Z,23.45
2023-04-16T20:06:48.532Z,16.02
2023-04-16T20:09:51.187Z,17.10
2023-04-16T20:12:53.530Z,19.42
2023-04-16T20:15:56.467Z,19.20
2023-04-16T20:19:03.638Z,17.10
2023-04-16T20:22:07.588Z,20.27
2023-04-16T20:25:10.553Z,19.30
2023-04-16T20:28:16.721Z,21.25
2023-04-16T20:31:19.080Z,20.80
2023-04-16T20:34:21.775Z,22.38
2023-04-16T20:37:24.014Z,16.35
2023-04-16T20:40:32.961Z,16.58
2023-04-16T20:43:38.845Z,23.73
2023-04-16T20:46:42.490Z,25.70
2023-04-16T20:49:49.796Z,23.27
2023-04-16T20:52:52.689Z,25.98
2023-04-16T20:55:55.451Z,15.73
2023-04-16T20:58:59.538Z,13.52
2023-04-16T21:02:01.807Z,19.50
2023-04-16T21:05:05.674Z,17.10
2023-04-16T21:08:08.214Z,17.92
2023-04-16T21:11:11.307Z,15.43
2023-04-16T21:14:14.191Z,18.58
2023-04-16T21:21:34.429Z,25.77
2023-04-16T21:25:18.192Z,16.00
2023-04-16T21:28:27.082Z,15.27
2023-04-16T21:36:46.445Z,19.77
2023-04-16T21:39:48.817Z,25.00
2023-04-16T21:42:52.487Z,21.88
2023-04-16T21:45:55.316Z,20.52
2023-04-16T21:48:57.449Z,20.75
2023-04-16T21:52:02.561Z,21.10
2023-04-16T21:55:05.170Z,25.67
2023-04-16T21:58:07.751Z,21.65
2023-04-16T22:01:11.061Z,22.45
2023-04-16T22:04:14.440Z,17.47
2023-04-16T22:07:17.116Z,17.27
2023-04-16T22:10:19.937Z,19.95
2023-04-16T22:13:22.951Z,21.15
2023-04-16T22:16:26.007Z,7.28
2023-04-16T22:19:28.537Z,18.35
2023-04-16T22:22:31.275Z,11.23
2023-04-16T22:25:33.862Z,8.85
2023-04-16T22:28:36.391Z,15.30
2023-04-16T22:31:39.085Z,20.92
2023-04-16T22:34:41.902Z,17.33
2023-04-16T22:37:43.953Z,16.10
2023-04-16T22:40:49.600Z,18.52
2023-04-16T22:43:52.555Z,24.88
2023-04-16T22:46:55.397Z,20.70
2023-04-16T22:49:57.609Z,23.52
2023-04-16T22:53:00.529Z,27.38
2023-04-16T22:56:02.787Z,25.70
2023-04-16T22:59:08.632Z,17.13
2023-04-16T23:02:11.054Z,15.20
2023-04-16T23:05:13.553Z,16.48
2023-04-16T23:08:15.718Z,18.65
2023-04-16T23:11:18.588Z,19.80
2023-04-16T23:14:21.554Z,21.55
2023-04-16T23:17:24.483Z,14.50
2023-04-16T23:20:26.508Z,12.75
2023-04-16T23:23:29.112Z,18.90
2023-04-16T23:26:37.997Z,22.45
2023-04-16T23:29:40.515Z,17.30
2023-04-16T23:32:42.729Z,22.52
2023-04-16T23:35:47.562Z,23.83
2023-04-16T23:38:49.984Z,24.10
2023-04-16T23:41:52.861Z,22.30
2023-04-16T23:44:55.097Z,21.08
2023-04-16T23:47:58.082Z,9.27
2023-04-16T23:51:00.837Z,20.65
2023-04-16T23:54:03.331Z,14.63
2023-04-16T23:57:05.456Z,21.50
